createdAt,value
2019-03-11T00:00:08.934Z,101021.27
2019-03-11T00:02:38.262Z,101017.78
2019-03-11T00:05:08.794Z,101020.83
2019-03-11T00:07:38.005Z,101030.83
2019-03-11T00:10:07.231Z,101012.10
2019-03-11T00:12:36.481Z,101014.28
2019-03-11T00:15:05.788Z,101013.40
2019-03-11T00:17:35.062Z,101017.78
2019-03-11T00:20:04.348Z,101011.23
2019-03-11T00:22:33.610Z,100994.23
2019-03-11T00:25:02.814Z,100993.83
2019-03-11T00:27:32.054Z,101003.83
2019-03-11T00:30:01.275Z,100997.31
2019-03-11T00:32:30.558Z,100988.14
2019-03-11T00:34:59.843Z,100997.31
2019-03-11T00:37:29.131Z,100994.67
2019-03-11T00:39:58.384Z,100988.61
2019-03-11T00:42:27.640Z,100993.84
2019-03-11T00:44:56.870Z,100989.92
2019-03-11T00:47:26.156Z,100986.42
2019-03-11T00:49:55.496Z,100986.44
2019-03-11T00:52:24.757Z,100992.55
2019-03-11T00:54:53.977Z,100992.10
2019-03-11T00:57:23.192Z,100981.20
2019-03-11T00:59:52.436Z,100977.72
2019-03-11T01:02:21.739Z,100987.30
2019-03-11T01:04:51.300Z,100986.02
2019-03-11T01:07:20.543Z,100982.52
2019-03-11T01:09:49.822Z,100973.81
2019-03-11T01:12:19.079Z,100977.30
2019-03-11T01:14:48.320Z,100984.70
2019-03-11T01:17:17.525Z,100981.64
2019-03-11T01:19:46.764Z,100988.16
2019-03-11T01:22:15.994Z,100984.69
2019-03-11T01:24:45.267Z,100976.87
2019-03-11T01:27:14.448Z,100987.75
2019-03-11T01:29:43.682Z,100988.17
2019-03-11T01:32:12.910Z,100980.76
2019-03-11T01:34:42.117Z,100980.34
2019-03-11T01:37:11.367Z,100972.93
2019-03-11T01:39:40.596Z,100975.13
2019-03-11T01:42:09.937Z,100992.98
2019-03-11T01:44:39.092Z,100977.27
2019-03-11T01:47:08.302Z,100970.75
2019-03-11T01:49:37.541Z,100974.24
2019-03-11T01:52:06.745Z,100975.95
2019-03-11T01:54:35.961Z,100961.59
2019-03-11T01:57:05.181Z,100968.54
2019-03-11T01:59:34.438Z,100980.30
2019-03-11T02:02:03.656Z,100963.34
2019-03-11T02:04:32.900Z,100974.22
2019-03-11T02:07:02.165Z,100956.80
2019-03-11T02:09:31.398Z,100957.69
2019-03-11T02:12:00.674Z,100954.63
2019-03-11T02:14:29.902Z,100957.67
2019-03-11T02:16:59.103Z,100950.30
2019-03-11T02:19:28.388Z,100948.13
2019-03-11T02:21:57.641Z,100962.48
2019-03-11T02:24:26.935Z,100950.73
2019-03-11T02:26:56.170Z,100955.51
2019-03-11T02:29:25.446Z,100951.60
2019-03-11T02:31:54.632Z,100963.78
2019-03-11T02:34:24.298Z,100962.48
2019-03-11T02:36:53.922Z,100961.64
2019-03-11T02:39:23.208Z,100959.02
2019-03-11T02:41:52.445Z,100954.23
2019-03-11T02:44:21.692Z,100952.50
2019-03-11T02:46:51.044Z,100968.17
2019-03-11T02:49:20.232Z,100966.00
2019-03-11T02:51:49.487Z,100962.06
2019-03-11T02:54:18.757Z,100972.09
2019-03-11T02:56:48.057Z,100959.44
2019-03-11T02:59:17.239Z,100968.17
2019-03-11T03:02:02.944Z,100970.30
2019-03-11T03:04:36.546Z,100962.89
2019-03-11T03:07:05.786Z,100958.55
2019-03-11T03:09:35.093Z,100956.77
2019-03-11T03:12:04.305Z,100962.86
2019-03-11T03:14:33.540Z,100951.06
2019-03-11T03:17:02.792Z,100952.84
2019-03-11T03:19:31.995Z,100948.91
2019-03-11T03:22:01.239Z,100957.16
2019-03-11T03:24:30.457Z,100946.28
2019-03-11T03:26:59.664Z,100942.81
2019-03-11T03:29:28.886Z,100947.60
2019-03-11T03:31:58.104Z,100951.10
2019-03-11T03:34:27.378Z,100967.62
2019-03-11T03:36:56.658Z,100961.94
2019-03-11T03:39:26.116Z,100951.48
2019-03-11T03:41:55.322Z,100948.01
2019-03-11T03:44:24.622Z,100952.79
2019-03-11T03:46:53.872Z,100945.36
2019-03-11T03:49:23.092Z,100947.55
2019-03-11T03:51:52.368Z,100953.66
2019-03-11T03:54:21.568Z,100951.95
2019-03-11T03:56:53.861Z,100955.89
2019-03-11T03:59:20.008Z,100958.94
2019-03-11T04:01:49.236Z,100968.54
2019-03-11T04:04:18.481Z,100958.98
2019-03-11T04:06:47.723Z,100963.80
2019-03-11T04:09:16.961Z,100955.94
2019-03-11T04:11:46.308Z,100956.83
2019-03-11T04:14:15.529Z,100964.24
2019-03-11T04:16:44.741Z,100976.02
2019-03-11T04:19:13.963Z,100951.23
2019-03-11T04:21:43.195Z,100953.83
2019-03-11T04:24:12.433Z,100948.62
2019-03-11T04:26:41.646Z,100944.69
2019-03-11T04:29:10.885Z,100953.41
2019-03-11T04:31:40.082Z,100954.70
2019-03-11T04:34:09.380Z,100959.48
2019-03-11T04:36:38.574Z,100951.66
2019-03-11T04:39:07.898Z,100949.05
2019-03-11T04:41:37.078Z,100964.26
2019-03-11T04:44:07.003Z,100962.97
2019-03-11T04:46:35.768Z,100966.88
2019-03-11T04:49:04.986Z,100965.59
2019-03-11T04:51:34.187Z,100966.90
2019-03-11T04:54:03.448Z,100969.06
2019-03-11T04:56:32.658Z,100969.05
2019-03-11T04:59:12.497Z,100973.41
2019-03-11T05:01:41.807Z,100968.61
2019-03-11T05:04:11.474Z,100963.83
2019-03-11T05:06:40.688Z,100963.38
2019-03-11T05:09:09.921Z,100966.44
2019-03-11T05:11:39.216Z,100961.67
2019-03-11T05:14:08.533Z,100952.96
2019-03-11T05:16:37.936Z,100947.30
2019-03-11T05:19:07.181Z,100949.91
2019-03-11T05:21:36.387Z,100948.59
2019-03-11T05:24:05.589Z,100956.86
2019-03-11T05:26:34.773Z,100952.51
2019-03-11T05:29:03.999Z,100945.14
2019-03-11T05:31:33.185Z,100954.71
2019-03-11T05:34:02.429Z,100957.77
2019-03-11T05:36:31.647Z,100952.53
2019-03-11T05:39:01.819Z,100951.23
2019-03-11T05:41:31.032Z,100953.40
2019-03-11T05:44:00.358Z,100954.27
2019-03-11T05:46:29.555Z,100966.01
2019-03-11T05:48:58.899Z,100960.34
2019-03-11T05:51:31.948Z,100970.80
2019-03-11T05:53:57.383Z,100968.17
2019-03-11T05:56:27.058Z,100969.90
2019-03-11T05:58:56.468Z,100974.28
2019-03-11T06:01:25.718Z,100967.73
2019-03-11T06:03:54.905Z,100974.27
2019-03-11T06:06:24.293Z,100979.47
2019-03-11T06:08:53.461Z,100969.02
2019-03-11T06:11:22.746Z,100971.63
2019-03-11T06:13:51.944Z,100974.23
2019-03-11T06:16:21.154Z,100975.97
2019-03-11T06:18:52.560Z,100971.19
2019-03-11T06:21:26.666Z,100968.53
2019-03-11T06:23:55.956Z,100977.61
2019-03-11T06:26:25.220Z,100970.58
2019-03-11T06:28:54.403Z,100974.45
2019-03-11T06:31:23.621Z,100964.77
2019-03-11T06:33:52.855Z,100975.69
2019-03-11T06:36:22.160Z,100975.77
2019-03-11T06:38:51.354Z,100978.39
2019-03-11T06:41:20.596Z,100987.16
2019-03-11T06:43:49.861Z,100982.34
2019-03-11T06:46:19.129Z,100978.84
2019-03-11T06:48:48.325Z,100981.86
2019-03-11T06:51:17.545Z,100974.00
2019-03-11T06:53:46.792Z,100983.98
2019-03-11T06:56:16.384Z,100981.75
2019-03-11T06:58:45.565Z,100977.36
2019-03-11T07:01:14.937Z,100975.98
2019-03-11T07:03:44.250Z,100984.25
2019-03-11T07:06:13.428Z,100984.23
2019-03-11T07:08:42.664Z,100978.92
2019-03-11T07:11:11.880Z,100981.48
2019-03-11T07:13:41.128Z,100984.11
2019-03-11T07:16:10.347Z,100987.13
2019-03-11T07:18:39.624Z,100980.11
2019-03-11T07:21:08.955Z,100994.38
2019-03-11T07:23:38.215Z,100991.14
2019-03-11T07:26:07.514Z,100990.17
2019-03-11T07:28:36.804Z,100983.63
2019-03-11T07:31:06.012Z,100992.25
2019-03-11T07:33:35.233Z,101005.36
2019-03-11T07:36:04.518Z,100993.59
2019-03-11T07:38:33.841Z,100997.88
2019-03-11T07:41:03.199Z,101017.40
2019-03-11T07:43:32.603Z,101010.43
2019-03-11T07:46:01.832Z,101015.16
2019-03-11T07:48:31.190Z,101001.55
2019-03-11T07:51:00.414Z,101030.41
2019-03-11T07:53:29.679Z,101021.16
2019-03-11T07:55:58.866Z,100999.30
2019-03-11T07:58:28.127Z,101021.48
2019-03-11T08:00:57.394Z,101027.30
2019-03-11T08:03:26.744Z,101030.16
2019-03-11T08:05:56.013Z,101037.35
2019-03-11T08:08:25.252Z,101026.92
2019-03-11T08:10:54.438Z,101027.34
2019-03-11T08:13:23.821Z,101021.27
2019-03-11T08:15:53.046Z,101034.34
2019-03-11T08:18:22.321Z,101030.41
2019-03-11T08:20:51.761Z,101031.13
2019-03-11T08:23:21.036Z,101032.41
2019-03-11T08:25:50.255Z,101031.05
2019-03-11T08:28:19.529Z,101033.16
2019-03-11T08:30:48.790Z,101027.02
2019-03-11T08:33:18.124Z,101038.79
2019-03-11T08:35:47.367Z,101034.75
2019-03-11T08:38:16.597Z,101065.77
2019-03-11T08:40:45.892Z,101064.63
2019-03-11T08:43:15.187Z,101058.08
2019-03-11T08:45:44.430Z,101054.83
2019-03-11T08:48:13.666Z,101052.14
2019-03-11T08:50:42.869Z,101054.34
2019-03-11T08:53:12.064Z,101060.15
2019-03-11T08:55:41.366Z,101050.45
2019-03-11T08:58:10.565Z,101065.88
2019-03-11T09:00:39.792Z,101050.72
2019-03-11T09:03:09.048Z,101073.87
2019-03-11T09:05:38.304Z,101043.62
2019-03-11T09:08:07.559Z,101053.17
2019-03-11T09:10:36.821Z,101073.12
2019-03-11T09:13:06.056Z,101057.39
2019-03-11T09:15:35.378Z,101070.02
2019-03-11T09:18:04.639Z,101078.44
2019-03-11T09:20:33.893Z,101082.86
2019-03-11T09:23:03.122Z,101074.98
2019-03-11T09:25:32.522Z,101093.05
2019-03-11T09:28:01.728Z,101085.22
2019-03-11T09:30:30.942Z,101087.45
2019-03-11T09:33:00.177Z,101093.97
2019-03-11T09:35:29.400Z,101099.30
2019-03-11T09:37:58.692Z,101105.05
2019-03-11T09:40:27.962Z,101110.34
2019-03-11T09:42:57.146Z,101115.25
2019-03-11T09:45:26.418Z,101125.39
2019-03-11T09:47:55.636Z,101113.19
2019-03-11T09:50:24.871Z,101115.33
2019-03-11T09:52:54.097Z,101116.65
2019-03-11T09:55:23.382Z,101137.09
2019-03-11T09:57:52.643Z,101121.76
2019-03-11T10:00:22.250Z,101120.84
2019-03-11T10:02:53.348Z,101128.63
2019-03-11T10:05:20.723Z,101143.09
2019-03-11T10:07:50.001Z,101135.30
2019-03-11T10:10:19.183Z,101142.25
2019-03-11T10:12:48.478Z,101140.00
2019-03-11T10:15:18.328Z,101143.42
2019-03-11T10:17:47.598Z,101127.66
2019-03-11T10:20:16.923Z,101135.92
2019-03-11T10:22:46.128Z,101142.37
2019-03-11T10:25:15.656Z,101136.46
2019-03-11T10:27:45.240Z,101138.47
2019-03-11T10:30:15.460Z,101170.50
2019-03-11T10:32:44.814Z,101145.88
2019-03-11T10:35:30.825Z,101145.89
2019-03-11T10:37:44.252Z,101155.45
2019-03-11T10:40:15.532Z,101165.86
2019-03-11T10:42:44.906Z,101138.73
2019-03-11T10:45:14.500Z,101144.39
2019-03-11T10:47:43.797Z,101138.61
2019-03-11T10:50:13.026Z,101153.52
2019-03-11T10:52:42.330Z,101161.86
2019-03-11T10:55:12.358Z,101170.53
2019-03-11T10:57:41.584Z,101139.47
2019-03-11T11:00:14.648Z,101153.06
2019-03-11T11:02:43.920Z,101162.05
2019-03-11T11:05:13.131Z,101172.97
2019-03-11T11:07:42.412Z,101162.44
2019-03-11T11:10:12.382Z,101173.99
2019-03-11T11:12:41.600Z,101177.95
2019-03-11T11:15:13.840Z,101183.08
2019-03-11T11:17:43.099Z,101188.72
2019-03-11T11:20:12.779Z,101195.27
2019-03-11T11:22:42.030Z,101198.70
2019-03-11T11:25:13.499Z,101202.70
2019-03-11T11:27:42.775Z,101206.70
2019-03-11T11:30:15.060Z,101210.61
2019-03-11T11:32:44.386Z,101212.75
2019-03-11T11:35:13.646Z,101210.06
2019-03-11T11:37:43.024Z,101206.57
2019-03-11T11:40:14.123Z,101209.99
2019-03-11T11:42:43.308Z,101221.67
2019-03-11T11:45:14.654Z,101212.55
2019-03-11T11:47:43.929Z,101212.05
2019-03-11T11:50:15.006Z,101223.83
2019-03-11T11:52:44.225Z,101224.44
2019-03-11T11:55:13.672Z,101213.44
2019-03-11T11:57:42.961Z,101237.71
2019-03-11T12:00:17.772Z,101232.42
2019-03-11T12:02:47.008Z,101205.75
2019-03-11T12:08:58.128Z,101227.34
2019-03-11T12:11:27.386Z,101227.11
2019-03-11T12:13:59.423Z,101223.39
2019-03-11T12:16:28.614Z,101216.59
2019-03-11T12:18:57.894Z,101227.38
2019-03-11T12:21:27.108Z,101224.94
2019-03-11T12:23:56.380Z,101250.45
2019-03-11T12:26:25.605Z,101241.11
2019-03-11T12:28:54.894Z,101236.03
2019-03-11T12:31:24.232Z,101239.97
2019-03-11T12:33:53.476Z,101249.41
2019-03-11T12:36:22.717Z,101240.70
2019-03-11T12:38:51.999Z,101241.22
2019-03-11T12:41:21.286Z,101241.07
2019-03-11T12:43:50.597Z,101249.33
2019-03-11T12:46:19.865Z,101251.99
2019-03-11T12:48:49.150Z,101242.01
2019-03-11T12:51:18.418Z,101258.62
2019-03-11T12:53:47.663Z,101242.12
2019-03-11T12:56:16.917Z,101246.05
2019-03-11T12:58:46.196Z,101231.66
2019-03-11T13:01:15.522Z,101259.73
2019-03-11T13:03:44.792Z,101264.16
2019-03-11T13:06:14.098Z,101265.95
2019-03-11T13:08:43.413Z,101261.78
2019-03-11T13:11:12.715Z,101273.80
2019-03-11T13:13:42.037Z,101270.38
2019-03-11T13:16:11.351Z,101267.01
2019-03-11T13:18:45.250Z,101277.19
2019-03-11T13:21:23.986Z,101276.41
2019-03-11T13:23:53.256Z,101285.19
2019-03-11T13:26:22.591Z,101285.69
2019-03-11T13:28:51.882Z,101280.02
2019-03-11T13:31:21.202Z,101274.80
2019-03-11T13:33:50.476Z,101280.49
2019-03-11T13:36:20.118Z,101273.52
2019-03-11T13:38:48.976Z,101262.61
2019-03-11T13:41:18.258Z,101270.91
2019-03-11T13:43:48.658Z,101268.73
2019-03-11T13:46:16.820Z,101269.16
2019-03-11T13:48:45.976Z,101270.90
2019-03-11T13:51:15.294Z,101269.15
2019-03-11T13:53:44.536Z,101262.14
2019-03-11T13:56:13.883Z,101268.27
2019-03-11T13:58:43.165Z,101258.20
2019-03-11T14:01:12.414Z,101253.81
2019-03-11T14:03:41.792Z,101263.85
2019-03-11T14:06:11.054Z,101262.96
2019-03-11T14:08:40.306Z,101259.86
2019-03-11T14:11:09.556Z,101271.58
2019-03-11T14:13:38.908Z,101253.22
2019-03-11T14:16:08.182Z,101249.25
2019-03-11T14:18:37.473Z,101247.91
2019-03-11T14:21:06.802Z,101257.48
2019-03-11T14:23:36.091Z,101250.05
2019-03-11T14:26:05.420Z,101245.21
2019-03-11T14:28:34.661Z,101243.45
2019-03-11T14:31:03.992Z,101238.66
2019-03-11T14:33:33.296Z,101241.70
2019-03-11T14:36:02.571Z,101241.72
2019-03-11T14:38:31.852Z,101246.09
2019-03-11T14:41:01.197Z,101235.62
2019-03-11T14:43:30.372Z,101234.73
2019-03-11T14:45:59.607Z,101242.14
2019-03-11T14:48:28.908Z,101236.05
2019-03-11T14:50:58.161Z,101247.37
2019-03-11T14:53:27.370Z,101236.02
2019-03-11T14:55:56.629Z,101247.37
2019-03-11T14:58:29.609Z,101006.26
2019-03-11T15:00:55.168Z,101254.79
2019-03-11T15:03:24.436Z,101248.22
2019-03-11T15:05:54.681Z,101250.39
2019-03-11T15:08:23.008Z,101249.55
2019-03-11T15:10:52.243Z,101258.72
2019-03-11T15:13:21.490Z,101267.09
2019-03-11T15:15:50.729Z,101287.66
2019-03-11T15:18:19.987Z,101271.53
2019-03-11T15:20:49.194Z,101277.71
2019-03-11T15:23:20.807Z,101272.03
2019-03-11T15:25:47.744Z,101266.38
2019-03-11T15:28:18.036Z,101263.31
2019-03-11T15:30:46.353Z,101259.35
2019-03-11T15:33:15.610Z,101267.20
2019-03-11T15:35:44.839Z,101269.37
2019-03-11T15:38:14.118Z,101271.53
2019-03-11T15:40:43.402Z,101271.51
2019-03-11T15:43:12.660Z,101269.73
2019-03-11T15:45:42.006Z,101265.36
2019-03-11T15:48:11.338Z,101263.59
2019-03-11T15:50:40.565Z,101265.28
2019-03-11T15:53:09.863Z,101266.12
2019-03-11T15:55:39.133Z,101258.25
2019-03-11T15:58:08.419Z,101271.80
2019-03-11T16:00:37.759Z,101290.59
2019-03-11T16:03:07.023Z,101287.50
2019-03-11T16:05:36.288Z,101278.78
2019-03-11T16:08:05.545Z,101270.91
2019-03-11T16:10:35.095Z,101275.30
2019-03-11T16:13:04.369Z,101277.04
2019-03-11T16:15:33.704Z,101296.77
2019-03-11T16:18:03.082Z,101285.41
2019-03-11T16:20:32.337Z,101289.39
2019-03-11T16:23:01.582Z,101287.25
2019-03-11T16:25:30.902Z,101291.22
2019-03-11T16:28:00.282Z,101289.00
2019-03-11T16:30:29.540Z,101299.92
2019-03-11T16:33:00.577Z,101292.95
2019-03-11T16:35:28.109Z,101297.39
2019-03-11T16:37:57.458Z,101316.19
2019-03-11T16:40:26.708Z,101311.84
2019-03-11T16:42:55.971Z,101313.16
2019-03-11T16:45:25.323Z,101315.77
2019-03-11T16:47:54.643Z,101320.12
2019-03-11T16:50:23.908Z,101320.14
2019-03-11T16:52:53.248Z,101325.82
2019-03-11T16:55:23.593Z,101323.64
2019-03-11T16:57:53.816Z,101332.34
2019-03-11T17:00:24.152Z,101334.13
2019-03-11T17:02:53.508Z,101334.55
2019-03-11T17:05:22.838Z,101342.41
2019-03-11T17:07:52.075Z,101341.98
2019-03-11T17:10:21.462Z,101352.44
2019-03-11T17:12:50.741Z,101357.68
2019-03-11T17:15:20.008Z,101363.36
2019-03-11T17:17:49.251Z,101368.59
2019-03-11T17:20:18.532Z,101376.86
2019-03-11T17:22:51.214Z,101372.94
2019-03-11T17:25:20.466Z,101373.83
2019-03-11T17:27:49.744Z,101383.86
2019-03-11T17:30:19.150Z,101389.95
2019-03-11T17:32:48.387Z,101400.00
2019-03-11T17:35:17.709Z,101399.13
2019-03-11T17:37:47.046Z,101404.36
2019-03-11T17:40:16.737Z,101420.51
2019-03-11T17:42:46.074Z,101426.61
2019-03-11T17:45:15.392Z,101430.08
2019-03-11T17:47:44.724Z,101444.95
2019-03-11T17:50:14.500Z,101449.76
2019-03-11T17:52:43.798Z,101452.81
2019-03-11T17:55:13.062Z,101464.16
2019-03-11T17:57:42.350Z,101465.47
2019-03-11T18:00:16.540Z,101473.30
2019-03-11T18:02:45.877Z,101483.81
2019-03-11T18:05:15.375Z,101498.64
2019-03-11T18:07:44.775Z,101525.30
2019-03-11T18:10:14.067Z,101526.16
2019-03-11T18:12:43.351Z,101544.52
2019-03-11T18:15:12.961Z,101532.30
2019-03-11T18:17:41.956Z,101549.76
2019-03-11T18:20:11.912Z,101551.95
2019-03-11T18:22:41.184Z,101570.72
2019-03-11T18:25:11.821Z,101565.05
2019-03-11T18:27:43.453Z,101587.77
2019-03-11T18:30:15.168Z,101589.94
2019-03-11T18:32:44.383Z,101609.59
2019-03-11T18:35:13.694Z,101626.64
2019-03-11T18:37:42.933Z,101619.63
2019-03-11T18:40:12.510Z,100803.05
2019-03-11T18:42:41.779Z,101646.28
2019-03-11T18:45:11.014Z,101656.78
2019-03-11T18:47:40.387Z,101662.01
2019-03-11T18:50:10.880Z,101663.31
2019-03-11T18:52:40.177Z,101675.98
2019-03-11T18:55:09.645Z,101686.04
2019-03-11T18:57:38.958Z,101688.66
2019-03-11T19:00:09.566Z,101697.41
2019-03-11T19:02:38.953Z,101691.27
2019-03-11T19:05:09.167Z,101697.39
2019-03-11T19:07:38.608Z,101705.27
2019-03-11T19:10:08.705Z,101708.73
2019-03-11T19:12:37.992Z,101719.64
2019-03-11T19:15:08.434Z,101730.13
2019-03-11T19:17:37.834Z,101738.00
2019-03-11T19:20:09.107Z,101747.15
2019-03-11T19:22:38.408Z,101759.37
2019-03-11T19:25:07.703Z,101717.31
2019-03-11T19:27:37.075Z,101766.78
2019-03-11T19:30:09.048Z,101793.41
2019-03-11T19:32:38.255Z,101806.97
2019-03-11T19:35:07.574Z,101820.92
2019-03-11T19:37:36.873Z,101805.63
2019-03-11T19:40:06.128Z,101814.80
2019-03-11T19:42:35.458Z,101818.27
2019-03-11T19:45:04.863Z,101830.93
2019-03-11T19:47:34.184Z,101846.67
2019-03-11T19:50:03.499Z,101852.36
2019-03-11T19:52:32.738Z,101867.61
2019-03-11T19:55:02.120Z,101875.04
2019-03-11T19:57:31.487Z,101882.09
2019-03-11T20:00:00.765Z,101883.39
2019-03-11T20:02:30.052Z,101885.11
2019-03-11T20:04:59.306Z,101893.84
2019-03-11T20:07:30.412Z,101892.53
2019-03-11T20:09:57.924Z,101904.72
2019-03-11T20:12:27.193Z,101909.95
2019-03-11T20:14:56.460Z,101920.83
2019-03-11T20:17:25.728Z,101924.76
2019-03-11T20:19:55.041Z,101920.84
2019-03-11T20:22:24.311Z,101926.97
2019-03-11T20:24:53.664Z,101942.20
2019-03-11T20:27:22.941Z,101943.58
2019-03-11T20:29:52.420Z,101948.38
2019-03-11T20:32:21.711Z,101943.99
2019-03-11T20:34:51.033Z,101943.14
2019-03-11T20:37:20.251Z,101952.28
2019-03-11T20:39:49.634Z,101952.75
2019-03-11T20:42:18.945Z,101967.13
2019-03-11T20:44:48.182Z,101968.47
2019-03-11T20:47:17.506Z,101979.42
2019-03-11T20:49:46.701Z,101984.23
2019-03-11T20:52:15.948Z,101991.22
2019-03-11T20:54:45.241Z,102006.52
2019-03-11T20:57:14.521Z,102012.64
2019-03-11T20:59:43.711Z,102009.12
2019-03-11T21:02:13.097Z,101995.61
2019-03-11T21:04:42.443Z,101998.64
2019-03-11T21:07:11.794Z,102005.16
2019-03-11T21:09:41.194Z,102020.50
2019-03-11T21:12:10.456Z,102028.36
2019-03-11T21:14:39.740Z,102034.09
2019-03-11T21:17:08.933Z,102041.08
2019-03-11T21:19:38.386Z,102050.27
2019-03-11T21:22:07.695Z,102048.08
2019-03-11T21:24:38.094Z,102040.66
2019-03-11T21:27:06.255Z,102038.04
2019-03-11T21:29:38.562Z,102041.08
2019-03-11T21:32:04.805Z,102048.08
2019-03-11T21:34:34.128Z,102052.45
2019-03-11T21:37:03.399Z,102057.28
2019-03-11T21:39:32.644Z,102055.14
2019-03-11T21:42:01.989Z,102059.92
2019-03-11T21:44:31.240Z,102074.36
2019-03-11T21:47:00.502Z,102078.75
2019-03-11T21:49:29.846Z,102081.84
2019-03-11T21:51:59.101Z,102080.55
2019-03-11T21:54:28.392Z,102072.25
2019-03-11T21:56:57.611Z,102066.98
2019-03-11T21:59:26.979Z,102082.32
2019-03-11T22:01:56.077Z,102088.00
2019-03-11T22:04:25.387Z,102090.19
2019-03-11T22:06:54.635Z,102097.61
2019-03-11T22:09:23.933Z,102105.98
2019-03-11T22:11:53.175Z,102113.44
2019-03-11T22:14:22.459Z,102113.02
2019-03-11T22:16:51.695Z,102120.45
2019-03-11T22:19:20.964Z,102122.63
2019-03-11T22:21:50.229Z,102130.09
2019-03-11T22:24:19.482Z,102133.17
2019-03-11T22:26:48.925Z,102139.27
2019-03-11T22:29:18.147Z,102141.47
2019-03-11T22:31:47.369Z,102150.23
2019-03-11T22:34:16.630Z,102157.26
2019-03-11T22:36:45.862Z,102166.02
2019-03-11T22:39:15.124Z,102166.45
2019-03-11T22:41:44.381Z,102160.34
2019-03-11T22:44:13.733Z,102164.27
2019-03-11T22:46:42.986Z,102187.82
2019-03-11T22:49:12.517Z,102179.11
2019-03-11T22:51:41.764Z,102175.61
2019-03-11T22:54:11.007Z,102167.28
2019-03-11T22:56:40.291Z,102172.09
2019-03-11T22:59:09.629Z,102188.64
2019-03-11T23:01:39.133Z,102183.41
2019-03-11T23:04:08.357Z,102176.39
2019-03-11T23:06:37.641Z,102184.66
2019-03-11T23:09:10.183Z,102192.07
2019-03-11T23:11:36.187Z,102201.22
2019-03-11T23:14:05.444Z,102199.03
2019-03-11T23:16:34.789Z,102193.33
2019-03-11T23:19:03.957Z,102201.66
2019-03-11T23:21:33.197Z,102201.22
2019-03-11T23:24:02.450Z,102208.61
2019-03-11T23:26:31.735Z,102212.08
2019-03-11T23:29:00.988Z,102197.69
2019-03-11T23:31:30.256Z,102202.03
2019-03-11T23:33:59.527Z,102194.14
2019-03-11T23:36:28.861Z,102205.03
2019-03-11T23:38:58.167Z,102208.16
2019-03-11T23:41:29.064Z,102197.64
2019-03-11T23:43:56.699Z,102209.81
2019-03-11T23:46:25.977Z,102195.86
2019-03-11T23:48:55.233Z,102204.62
2019-03-11T23:51:24.627Z,102204.19
2019-03-11T23:53:53.849Z,102204.59
2019-03-11T23:56:23.079Z,102202.82
2019-03-11T23:58:52.366Z,102206.72
